Time;durP1;ratioP1;P1;durP2;ratioP2;P2;SDS_P1;SDS_P2;PMS_P1;PMS_P2;Temp;Humidity;BMP_temperature;BMP_pressure;BME280_temperature;BME280_humidity;BME280_pressure;Samples;Min_cycle;Max_cycle;Signal;HPM_P1;HPM_P2
2023/07/24 00:00:48;;;;;;;3.35;2.67;;;;;;;;;;5001946;28;20198;-70
2023/07/24 00:03:14;;;;;;;3.10;2.58;;;;;;;;;;4995676;28;20213;-70
2023/07/24 00:05:39;;;;;;;3.45;2.50;;;;;;;;;;5013126;28;20198;-69
2023/07/24 00:08:05;;;;;;;3.03;2.72;;;;;;;;;;5013673;28;20280;-69
2023/07/24 00:10:30;;;;;;;3.85;2.70;;;;;;;;;;5007510;28;20191;-69
2023/07/24 00:12:56;;;;;;;3.03;2.63;;;;;;;;;;5007903;28;20282;-70
2023/07/24 00:15:21;;;;;;;3.58;2.47;;;;;;;;;;5020294;28;20226;-69
2023/07/24 00:17:47;;;;;;;3.70;2.75;;;;;;;;;;5000252;28;20220;-69
2023/07/24 00:20:12;;;;;;;2.92;2.40;;;;;;;;;;5014421;28;20187;-69
2023/07/24 00:22:37;;;;;;;3.90;2.53;;;;;;;;;;5013268;28;20275;-69
2023/07/24 00:25:05;;;;;;;2.80;2.40;;;;;;;;;;5013548;28;20702;-69
2023/07/24 00:27:30;;;;;;;3.97;2.78;;;;;;;;;;5008295;28;20226;-69
2023/07/24 00:29:56;;;;;;;4.68;2.58;;;;;;;;;;4993193;28;20195;-69
2023/07/24 00:32:21;;;;;;;3.40;2.80;;;;;;;;;;5002171;28;20198;-70
2023/07/24 00:34:46;;;;;;;5.60;2.88;;;;;;;;;;5013050;28;20574;-69
2023/07/24 00:37:12;;;;;;;4.35;3.10;;;;;;;;;;5012732;28;20346;-69
2023/07/24 00:39:37;;;;;;;3.15;2.63;;;;;;;;;;5000624;28;20612;-69
2023/07/24 00:42:03;;;;;;;10.52;3.33;;;;;;;;;;5003106;28;20195;-69
2023/07/24 00:44:28;;;;;;;4.53;2.85;;;;;;;;;;5013068;28;20333;-69
2023/07/24 00:46:54;;;;;;;4.35;2.60;;;;;;;;;;5013024;28;20226;-70
2023/07/24 00:49:20;;;;;;;3.95;2.72;;;;;;;;;;5012272;28;20541;-69
2023/07/24 00:51:46;;;;;;;3.72;2.72;;;;;;;;;;5010046;28;20234;-69
2023/07/24 00:54:14;;;;;;;4.18;2.70;;;;;;;;;;5012638;28;20674;-68
2023/07/24 00:56:40;;;;;;;4.90;3.10;;;;;;;;;;5012542;28;20226;-70
2023/07/24 00:59:05;;;;;;;2.88;2.58;;;;;;;;;;5013212;28;20638;-70
2023/07/24 01:01:31;;;;;;;2.95;2.65;;;;;;;;;;5012926;28;20229;-69
2023/07/24 01:03:57;;;;;;;4.32;3.00;;;;;;;;;;5006048;28;20186;-70
2023/07/24 01:06:23;;;;;;;3.13;2.72;;;;;;;;;;5008777;28;20193;-68
2023/07/24 01:08:49;;;;;;;3.65;2.95;;;;;;;;;;5008554;28;20273;-68
2023/07/24 01:11:24;;;;;;;4.05;2.78;;;;;;;;;;5011308;28;20280;-68
2023/07/24 01:14:18;;;;;;;5.18;3.40;;;;;;;;;;5013504;28;20217;-68
2023/07/24 01:16:47;;;;;;;5.97;3.35;;;;;;;;;;4987877;28;20222;-69
2023/07/24 01:19:20;;;;;;;5.22;3.30;;;;;;;;;;5002438;28;20539;-69
2023/07/24 01:22:05;;;;;;;3.38;3.08;;;;;;;;;;5003357;28;20187;-69
2023/07/24 01:24:51;;;;;;;5.88;3.45;;;;;;;;;;5003260;28;20270;-69
2023/07/24 01:27:26;;;;;;;3.42;3.13;;;;;;;;;;4999505;28;20226;-68
2023/07/24 01:29:51;;;;;;;4.90;3.53;;;;;;;;;;5011550;28;20194;-68
2023/07/24 01:32:18;;;;;;;5.72;3.72;;;;;;;;;;5008477;28;20190;-68
2023/07/24 01:34:44;;;;;;;4.28;3.70;;;;;;;;;;5013338;28;20210;-68
2023/07/24 01:37:11;;;;;;;5.85;4.03;;;;;;;;;;5011982;28;20253;-68
2023/07/24 01:39:37;;;;;;;4.82;4.32;;;;;;;;;;5006386;28;20196;-68
2023/07/24 01:42:03;;;;;;;3.50;3.10;;;;;;;;;;5008264;28;20666;-68
2023/07/24 01:44:28;;;;;;;6.88;4.30;;;;;;;;;;5011768;28;20195;-68
2023/07/24 01:46:53;;;;;;;5.03;4.03;;;;;;;;;;5011476;28;20385;-68
2023/07/24 01:49:19;;;;;;;4.40;3.90;;;;;;;;;;5012491;28;20549;-68
2023/07/24 01:51:44;;;;;;;4.38;3.97;;;;;;;;;;5012010;28;20321;-70
2023/07/24 01:54:10;;;;;;;5.35;4.60;;;;;;;;;;5010863;28;20681;-69
2023/07/24 01:56:36;;;;;;;5.25;4.65;;;;;;;;;;5012064;28;20197;-71
2023/07/24 01:59:01;;;;;;;4.68;3.80;;;;;;;;;;5011561;28;20197;-68
2023/07/24 02:01:27;;;;;;;5.15;4.65;;;;;;;;;;5004008;28;20199;-68
2023/07/24 02:03:52;;;;;;;5.05;4.55;;;;;;;;;;4988741;28;20187;-70
2023/07/24 02:06:17;;;;;;;6.97;5.78;;;;;;;;;;5011335;28;20336;-71
2023/07/24 02:08:48;;;;;;;5.13;4.63;;;;;;;;;;4993324;28;20565;-73
2023/07/24 02:11:14;;;;;;;6.40;5.03;;;;;;;;;;4992274;28;20196;-70
2023/07/24 02:13:39;;;;;;;5.78;5.18;;;;;;;;;;4988244;28;20190;-70
2023/07/24 02:16:05;;;;;;;7.88;5.43;;;;;;;;;;5004203;28;20187;-71
2023/07/24 02:18:30;;;;;;;6.60;5.18;;;;;;;;;;4995710;28;20218;-68
2023/07/24 02:20:55;;;;;;;8.93;5.45;;;;;;;;;;5006173;28;20244;-68
2023/07/24 02:23:21;;;;;;;5.93;5.03;;;;;;;;;;5009421;28;20203;-68
2023/07/24 02:25:50;;;;;;;7.97;5.90;;;;;;;;;;5008904;28;20193;-68
2023/07/24 02:28:16;;;;;;;5.63;5.07;;;;;;;;;;5011849;28;20302;-69
2023/07/24 02:30:41;;;;;;;8.13;6.05;;;;;;;;;;5012636;28;20278;-69
2023/07/24 02:33:07;;;;;;;9.18;5.20;;;;;;;;;;4981311;28;20187;-69
2023/07/24 02:35:38;;;;;;;8.30;5.78;;;;;;;;;;5010804;28;20206;-69
2023/07/24 02:38:04;;;;;;;8.60;6.10;;;;;;;;;;4997113;28;20194;-69
2023/07/24 02:40:29;;;;;;;6.80;5.75;;;;;;;;;;5010027;28;20277;-69
2023/07/24 02:42:54;;;;;;;6.68;5.75;;;;;;;;;;5024006;28;20198;-70
2023/07/24 02:45:20;;;;;;;8.32;6.07;;;;;;;;;;5009881;28;20207;-70
2023/07/24 02:47:45;;;;;;;6.45;5.85;;;;;;;;;;5010340;28;20186;-69
2023/07/24 02:50:10;;;;;;;7.28;6.07;;;;;;;;;;5010952;28;20191;-69
2023/07/24 02:52:36;;;;;;;7.10;5.85;;;;;;;;;;5009454;28;20191;-69
2023/07/24 02:55:01;;;;;;;6.50;5.90;;;;;;;;;;5004874;28;20219;-70
2023/07/24 02:57:26;;;;;;;6.72;6.03;;;;;;;;;;4992996;28;20262;-69
2023/07/24 02:59:52;;;;;;;6.78;5.50;;;;;;;;;;5011041;28;20191;-68
2023/07/24 03:02:17;;;;;;;6.25;5.65;;;;;;;;;;5010689;28;20199;-68
2023/07/24 03:04:42;;;;;;;6.03;5.47;;;;;;;;;;5010644;28;20416;-69
2023/07/24 03:07:08;;;;;;;6.78;5.43;;;;;;;;;;5009447;28;20214;-68
2023/07/24 03:09:33;;;;;;;6.53;5.93;;;;;;;;;;5005926;28;20218;-68
2023/07/24 03:11:58;;;;;;;6.55;5.95;;;;;;;;;;5008566;28;20233;-68
2023/07/24 03:14:24;;;;;;;7.93;6.28;;;;;;;;;;5004190;28;20214;-68
2023/07/24 03:16:49;;;;;;;5.88;5.25;;;;;;;;;;5008817;28;20654;-68
2023/07/24 03:19:17;;;;;;;7.32;5.78;;;;;;;;;;5009678;28;20663;-68
2023/07/24 03:21:43;;;;;;;10.65;6.00;;;;;;;;;;5010200;28;20286;-69
2023/07/24 03:24:08;;;;;;;6.82;5.80;;;;;;;;;;5007569;28;20615;-69
2023/07/24 03:26:33;;;;;;;6.38;5.78;;;;;;;;;;5018869;28;20190;-69
2023/07/24 03:28:59;;;;;;;6.72;6.13;;;;;;;;;;5000474;28;20190;-69
2023/07/24 03:31:25;;;;;;;7.88;6.53;;;;;;;;;;5010508;28;20253;-69
2023/07/24 03:33:50;;;;;;;8.48;6.47;;;;;;;;;;5006274;28;20187;-69
2023/07/24 03:36:15;;;;;;;7.07;6.38;;;;;;;;;;5020876;28;20191;-69
2023/07/24 03:38:41;;;;;;;8.10;6.18;;;;;;;;;;5009993;28;20186;-69
2023/07/24 03:41:06;;;;;;;7.55;6.60;;;;;;;;;;5004753;28;20654;-69
2023/07/24 03:43:32;;;;;;;7.10;6.40;;;;;;;;;;5000954;28;20198;-69
2023/07/24 03:45:57;;;;;;;6.80;6.15;;;;;;;;;;4997205;28;20630;-68
2023/07/24 03:48:22;;;;;;;7.82;6.93;;;;;;;;;;5007720;28;20198;-69
2023/07/24 03:50:50;;;;;;;8.07;6.78;;;;;;;;;;5006603;28;20635;-69
2023/07/24 03:53:16;;;;;;;7.32;6.63;;;;;;;;;;5009270;28;20215;-69
2023/07/24 03:55:41;;;;;;;7.93;6.88;;;;;;;;;;5007487;28;20690;-69
2023/07/24 03:58:06;;;;;;;8.43;6.85;;;;;;;;;;4994849;28;20206;-69
2023/07/24 04:00:32;;;;;;;7.38;6.55;;;;;;;;;;4995697;28;20187;-69
2023/07/24 04:02:57;;;;;;;8.20;7.15;;;;;;;;;;4992523;28;20286;-69
2023/07/24 04:05:22;;;;;;;7.60;6.70;;;;;;;;;;5007133;28;20577;-69
2023/07/24 04:07:48;;;;;;;10.15;7.43;;;;;;;;;;5007585;28;20248;-69
2023/07/24 04:10:13;;;;;;;10.15;7.28;;;;;;;;;;5006773;28;20207;-69
2023/07/24 04:12:39;;;;;;;7.75;6.95;;;;;;;;;;5003441;28;20183;-69
2023/07/24 04:15:04;;;;;;;8.35;7.55;;;;;;;;;;5003135;28;20223;-68
2023/07/24 04:17:30;;;;;;;8.50;7.60;;;;;;;;;;5008884;28;20669;-68
2023/07/24 04:19:55;;;;;;;8.38;7.45;;;;;;;;;;5014421;28;20633;-68
2023/07/24 04:22:21;;;;;;;8.27;7.18;;;;;;;;;;5000590;28;20187;-68
2023/07/24 04:24:46;;;;;;;8.93;7.25;;;;;;;;;;5001140;28;20242;-68
2023/07/24 04:27:11;;;;;;;11.73;7.75;;;;;;;;;;4996908;28;20258;-68
2023/07/24 04:29:37;;;;;;;9.90;7.60;;;;;;;;;;5001261;28;20214;-68
2023/07/24 04:32:02;;;;;;;13.88;7.53;;;;;;;;;;5007064;28;20673;-69
2023/07/24 04:34:28;;;;;;;8.80;7.22;;;;;;;;;;5002403;28;20309;-70
2023/07/24 04:36:53;;;;;;;9.90;8.50;;;;;;;;;;5010598;28;20186;-70
2023/07/24 04:39:18;;;;;;;9.15;7.93;;;;;;;;;;5001207;28;20191;-70
2023/07/24 04:41:44;;;;;;;8.85;7.95;;;;;;;;;;5006916;28;20202;-70
2023/07/24 04:44:09;;;;;;;11.20;8.82;;;;;;;;;;5012539;28;20241;-70
2023/07/24 04:46:34;;;;;;;11.25;8.20;;;;;;;;;;5013502;28;20218;-70
2023/07/24 04:49:00;;;;;;;15.05;9.68;;;;;;;;;;5012025;28;20213;-71
2023/07/24 04:51:25;;;;;;;11.20;9.07;;;;;;;;;;5012770;28;20273;-70
2023/07/24 04:53:51;;;;;;;12.98;9.02;;;;;;;;;;5012486;28;20194;-70
2023/07/24 04:56:16;;;;;;;12.10;9.75;;;;;;;;;;5009485;28;20206;-69
2023/07/24 04:58:41;;;;;;;10.90;9.70;;;;;;;;;;5012338;28;20217;-69
2023/07/24 05:01:07;;;;;;;11.93;9.50;;;;;;;;;;5012374;28;20660;-70
2023/07/24 05:03:32;;;;;;;13.73;10.07;;;;;;;;;;5001959;28;20201;-70
2023/07/24 05:05:57;;;;;;;12.38;9.70;;;;;;;;;;5012413;28;20205;-70
2023/07/24 05:08:23;;;;;;;11.80;10.13;;;;;;;;;;4999865;28;20191;-70
2023/07/24 05:10:58;;;;;;;12.18;10.43;;;;;;;;;;5013848;28;20191;-70
2023/07/24 05:13:24;;;;;;;13.52;9.93;;;;;;;;;;4992715;28;20642;-70
2023/07/24 05:15:50;;;;;;;12.57;10.40;;;;;;;;;;5002510;28;20278;-72
2023/07/24 05:18:15;;;;;;;11.32;10.13;;;;;;;;;;4992921;28;20269;-71
2023/07/24 05:20:47;;;;;;;11.85;10.25;;;;;;;;;;5003362;28;20183;-71
2023/07/24 05:23:13;;;;;;;13.13;9.98;;;;;;;;;;4992519;28;20599;-71
2023/07/24 05:25:40;;;;;;;11.25;10.15;;;;;;;;;;4979120;28;20202;-70
2023/07/24 05:28:05;;;;;;;12.02;10.32;;;;;;;;;;5010318;28;20610;-71
2023/07/24 05:30:31;;;;;;;11.65;10.43;;;;;;;;;;5012135;28;20217;-70
2023/07/24 05:32:56;;;;;;;11.82;10.63;;;;;;;;;;5012456;28;20552;-72
2023/07/24 05:35:21;;;;;;;16.45;11.95;;;;;;;;;;5003713;28;20214;-69
2023/07/24 05:37:47;;;;;;;14.45;10.35;;;;;;;;;;5008504;28;20205;-69
2023/07/24 05:40:12;;;;;;;12.02;10.82;;;;;;;;;;5012207;28;20201;-69
2023/07/24 05:42:41;;;;;;;15.15;11.50;;;;;;;;;;5006562;28;20196;-69
2023/07/24 05:45:08;;;;;;;14.15;10.73;;;;;;;;;;5001157;28;20195;-68
2023/07/24 05:47:34;;;;;;;13.38;10.95;;;;;;;;;;4992718;28;20802;-70
2023/07/24 05:49:59;;;;;;;13.57;11.45;;;;;;;;;;5002345;28;20282;-68
2023/07/24 05:52:25;;;;;;;11.85;10.73;;;;;;;;;;5006825;28;20199;-68
2023/07/24 05:54:50;;;;;;;13.35;11.82;;;;;;;;;;5010755;28;20567;-68
2023/07/24 05:57:15;;;;;;;16.42;11.82;;;;;;;;;;5011780;28;20226;-68
2023/07/24 05:59:41;;;;;;;12.63;11.30;;;;;;;;;;5010899;28;20191;-68
2023/07/24 06:02:07;;;;;;;14.38;11.48;;;;;;;;;;5006869;28;20218;-68
2023/07/24 06:04:33;;;;;;;13.20;11.07;;;;;;;;;;5006582;28;20183;-68
2023/07/24 06:06:58;;;;;;;13.60;11.32;;;;;;;;;;5016690;28;20214;-68
2023/07/24 06:09:23;;;;;;;12.63;11.07;;;;;;;;;;5009464;28;20277;-68
2023/07/24 06:11:49;;;;;;;13.65;12.25;;;;;;;;;;5008004;28;20194;-68
2023/07/24 06:14:14;;;;;;;13.80;11.48;;;;;;;;;;4995185;28;20214;-69
2023/07/24 06:16:40;;;;;;;16.88;12.27;;;;;;;;;;5002301;28;20215;-69
2023/07/24 06:19:05;;;;;;;14.35;11.55;;;;;;;;;;5006241;28;20191;-69
2023/07/24 06:21:31;;;;;;;12.77;11.20;;;;;;;;;;5004019;28;20199;-69
2023/07/24 06:23:56;;;;;;;12.63;11.32;;;;;;;;;;5009962;28;20187;-68
2023/07/24 06:26:22;;;;;;;13.40;11.98;;;;;;;;;;5001234;28;20268;-67
2023/07/24 06:28:47;;;;;;;15.45;12.15;;;;;;;;;;5007562;28;20250;-68
2023/07/24 06:31:13;;;;;;;13.45;12.05;;;;;;;;;;5012277;28;20289;-68
2023/07/24 06:33:38;;;;;;;16.58;11.63;;;;;;;;;;5002223;28;20214;-68
2023/07/24 06:36:04;;;;;;;11.93;10.55;;;;;;;;;;5009023;28;20550;-68
2023/07/24 06:38:29;;;;;;;12.15;10.95;;;;;;;;;;5012130;28;20701;-67
2023/07/24 06:40:54;;;;;;;10.35;9.35;;;;;;;;;;5002072;28;20278;-71
2023/07/24 06:43:20;;;;;;;12.43;10.63;;;;;;;;;;5001119;28;20283;-68
2023/07/24 06:45:45;;;;;;;12.07;10.88;;;;;;;;;;5007345;28;20226;-67
2023/07/24 06:48:11;;;;;;;11.82;10.18;;;;;;;;;;4997713;28;20183;-68
2023/07/24 06:50:36;;;;;;;13.98;10.27;;;;;;;;;;5002730;28;20202;-69
2023/07/24 06:53:01;;;;;;;10.93;9.82;;;;;;;;;;5009503;28;20194;-67
2023/07/24 06:55:27;;;;;;;11.20;9.55;;;;;;;;;;5007258;28;20629;-68
2023/07/24 06:57:52;;;;;;;11.38;9.48;;;;;;;;;;5011988;28;20567;-68
2023/07/24 07:00:18;;;;;;;10.38;9.32;;;;;;;;;;5011458;28;20293;-68
2023/07/24 07:02:43;;;;;;;10.70;9.52;;;;;;;;;;5018928;28;20181;-71
2023/07/24 07:05:09;;;;;;;10.32;8.80;;;;;;;;;;5015149;28;20183;-68
2023/07/24 07:07:34;;;;;;;11.20;10.02;;;;;;;;;;5008732;28;20250;-69
2023/07/24 07:10:00;;;;;;;12.30;9.93;;;;;;;;;;5007634;28;20189;-68
2023/07/24 07:12:25;;;;;;;10.45;9.27;;;;;;;;;;4996429;28;20200;-68
2023/07/24 07:14:50;;;;;;;13.05;10.10;;;;;;;;;;5010031;28;20203;-68
2023/07/24 07:17:16;;;;;;;13.00;11.00;;;;;;;;;;5010326;28;20211;-68
2023/07/24 07:19:41;;;;;;;12.60;11.05;;;;;;;;;;5010690;28;20194;-68
2023/07/24 07:22:07;;;;;;;14.50;10.55;;;;;;;;;;5004630;28;20278;-68
2023/07/24 07:24:32;;;;;;;12.80;10.77;;;;;;;;;;5003542;28;20590;-68
2023/07/24 07:26:57;;;;;;;12.18;10.52;;;;;;;;;;4996688;28;20246;-68
2023/07/24 07:29:23;;;;;;;13.90;11.32;;;;;;;;;;5006823;28;20274;-68
2023/07/24 07:31:48;;;;;;;12.93;10.93;;;;;;;;;;5005483;28;20253;-69
2023/07/24 07:34:13;;;;;;;16.40;11.63;;;;;;;;;;5010364;28;20700;-70
2023/07/24 07:36:39;;;;;;;13.20;10.65;;;;;;;;;;5001199;28;20196;-69
2023/07/24 07:39:04;;;;;;;13.50;10.85;;;;;;;;;;5005175;28;20729;-72
2023/07/24 07:41:29;;;;;;;13.90;10.20;;;;;;;;;;5010182;28;20199;-69
2023/07/24 07:43:55;;;;;;;12.13;9.02;;;;;;;;;;5009719;28;20269;-69
2023/07/24 07:46:20;;;;;;;10.90;8.82;;;;;;;;;;5009187;28;20282;-68
2023/07/24 07:48:49;;;;;;;13.23;8.70;;;;;;;;;;5013203;28;20203;-68
2023/07/24 07:51:14;;;;;;;13.75;7.75;;;;;;;;;;4986733;28;20245;-68
2023/07/24 07:53:40;;;;;;;10.00;8.23;;;;;;;;;;5008256;28;20672;-69
2023/07/24 07:56:05;;;;;;;8.23;7.20;;;;;;;;;;5013082;28;20225;-69
2023/07/24 07:58:31;;;;;;;11.20;8.45;;;;;;;;;;5011904;28;20194;-72
2023/07/24 08:00:56;;;;;;;9.68;7.45;;;;;;;;;;5002624;28;20229;-69
2023/07/24 08:03:21;;;;;;;11.70;8.05;;;;;;;;;;5015554;28;20195;-70
2023/07/24 08:05:47;;;;;;;10.70;8.13;;;;;;;;;;5013809;28;20270;-69
2023/07/24 08:08:13;;;;;;;11.43;7.40;;;;;;;;;;5007688;28;20201;-69
2023/07/24 08:10:39;;;;;;;8.90;7.00;;;;;;;;;;4999428;28;20278;-68
2023/07/24 08:13:04;;;;;;;8.85;7.10;;;;;;;;;;4993811;28;20211;-68
2023/07/24 08:15:34;;;;;;;12.90;7.75;;;;;;;;;;5021111;28;20679;-71
2023/07/24 08:17:59;;;;;;;10.48;6.88;;;;;;;;;;5010529;28;20214;-69
2023/07/24 08:20:25;;;;;;;11.60;6.97;;;;;;;;;;5006260;28;20234;-69
2023/07/24 08:22:50;;;;;;;8.13;6.47;;;;;;;;;;5006345;28;20266;-68
2023/07/24 08:25:16;;;;;;;10.98;7.38;;;;;;;;;;5001697;28;20746;-68
2023/07/24 08:27:42;;;;;;;8.73;7.28;;;;;;;;;;5013263;28;20237;-70
2023/07/24 08:30:08;;;;;;;8.00;6.82;;;;;;;;;;4998617;28;20246;-68
2023/07/24 08:32:33;;;;;;;9.07;7.13;;;;;;;;;;5012343;28;20202;-68
2023/07/24 08:34:59;;;;;;;8.40;7.22;;;;;;;;;;5013311;28;20223;-68
2023/07/24 08:37:24;;;;;;;7.88;6.65;;;;;;;;;;4999947;28;20231;-70
2023/07/24 08:39:49;;;;;;;6.72;5.35;;;;;;;;;;4998406;28;20671;-69
2023/07/24 08:42:15;;;;;;;7.30;5.18;;;;;;;;;;5009738;28;20277;-68
2023/07/24 08:44:42;;;;;;;10.77;5.70;;;;;;;;;;5004718;28;20231;-68
2023/07/24 08:47:11;;;;;;;8.68;5.38;;;;;;;;;;5008181;28;20206;-69
2023/07/24 08:49:40;;;;;;;10.18;5.85;;;;;;;;;;5007410;28;20566;-72
2023/07/24 08:52:06;;;;;;;7.75;5.28;;;;;;;;;;5011253;28;20325;-68
2023/07/24 08:54:35;;;;;;;9.20;6.22;;;;;;;;;;5009955;28;20218;-68
2023/07/24 08:57:01;;;;;;;9.10;5.93;;;;;;;;;;5007286;28;20194;-68
2023/07/24 08:59:28;;;;;;;7.43;5.68;;;;;;;;;;5017193;28;20198;-70
2023/07/24 09:01:53;;;;;;;7.38;5.53;;;;;;;;;;5006891;28;20227;-68
2023/07/24 09:04:19;;;;;;;10.77;5.95;;;;;;;;;;5013965;28;20306;-67
2023/07/24 09:06:45;;;;;;;8.43;5.30;;;;;;;;;;5014844;28;20442;-68
2023/07/24 09:09:14;;;;;;;10.85;5.75;;;;;;;;;;5012241;28;20191;-68
2023/07/24 09:11:50;;;;;;;7.40;5.90;;;;;;;;;;5007254;28;20707;-68
2023/07/24 09:14:31;;;;;;;6.20;5.20;;;;;;;;;;5001025;28;20288;-68
2023/07/24 09:17:07;;;;;;;8.90;5.97;;;;;;;;;;5007123;28;20286;-68
2023/07/24 09:19:33;;;;;;;9.63;6.30;;;;;;;;;;4998057;28;20198;-68
2023/07/24 09:22:10;;;;;;;7.25;6.18;;;;;;;;;;5009112;28;20200;-70
2023/07/24 09:24:35;;;;;;;9.93;6.18;;;;;;;;;;5007878;28;20195;-69
2023/07/24 09:27:05;;;;;;;7.68;6.18;;;;;;;;;;5002170;28;20636;-69
2023/07/24 09:29:31;;;;;;;9.70;6.50;;;;;;;;;;5022330;28;20191;-70
2023/07/24 09:31:57;;;;;;;9.07;6.60;;;;;;;;;;4997658;28;20534;-69
2023/07/24 09:34:25;;;;;;;9.15;7.20;;;;;;;;;;4999192;28;20199;-71
2023/07/24 09:36:51;;;;;;;11.18;7.47;;;;;;;;;;5002561;28;20203;-69
2023/07/24 09:39:23;;;;;;;11.10;7.15;;;;;;;;;;5000142;28;20563;-69
2023/07/24 09:41:49;;;;;;;9.55;7.65;;;;;;;;;;5011175;28;20211;-73
2023/07/24 09:44:15;;;;;;;14.18;7.28;;;;;;;;;;4983704;28;20207;-70
2023/07/24 09:46:43;;;;;;;11.23;7.90;;;;;;;;;;5003798;28;20190;-69
2023/07/24 09:49:08;;;;;;;9.70;7.60;;;;;;;;;;5000832;28;20198;-72
2023/07/24 09:51:34;;;;;;;9.35;7.60;;;;;;;;;;4985177;28;20179;-69
2023/07/24 09:54:18;;;;;;;12.18;7.78;;;;;;;;;;4999878;28;20199;-69
2023/07/24 09:56:44;;;;;;;8.40;6.68;;;;;;;;;;5005280;28;20210;-70
2023/07/24 09:59:13;;;;;;;7.32;6.45;;;;;;;;;;5012291;28;20265;-69
2023/07/24 10:01:39;;;;;;;10.50;6.25;;;;;;;;;;4995518;28;20187;-69
2023/07/24 10:04:05;;;;;;;9.93;6.10;;;;;;;;;;4991666;28;20699;-70
2023/07/24 10:06:31;;;;;;;8.93;6.15;;;;;;;;;;5011634;28;20198;-68
2023/07/24 10:08:57;;;;;;;8.10;6.63;;;;;;;;;;5006605;28;20198;-69
2023/07/24 10:11:24;;;;;;;8.68;7.07;;;;;;;;;;4989801;28;20647;-68
2023/07/24 10:13:50;;;;;;;9.25;6.53;;;;;;;;;;4316727;28;10001045;-72
2023/07/24 10:16:16;;;;;;;8.48;6.65;;;;;;;;;;5008104;28;20218;-68
2023/07/24 10:18:43;;;;;;;7.57;6.50;;;;;;;;;;5004394;28;20222;-70
2023/07/24 10:21:10;;;;;;;10.43;6.80;;;;;;;;;;4995861;28;20885;-68
2023/07/24 10:23:37;;;;;;;9.57;6.50;;;;;;;;;;4999586;28;20202;-68
2023/07/24 10:26:06;;;;;;;6.20;5.60;;;;;;;;;;5002210;28;20631;-68
2023/07/24 10:28:39;;;;;;;6.15;5.55;;;;;;;;;;5004610;28;20230;-68
2023/07/24 10:31:21;;;;;;;6.03;5.38;;;;;;;;;;5006058;28;20586;-68
2023/07/24 10:33:46;;;;;;;6.15;4.82;;;;;;;;;;4994319;28;20658;-69
2023/07/24 10:36:13;;;;;;;6.40;5.60;;;;;;;;;;5002175;28;20301;-68
2023/07/24 10:38:43;;;;;;;7.20;5.80;;;;;;;;;;5008111;28;20186;-67
2023/07/24 10:41:10;;;;;;;8.57;6.05;;;;;;;;;;4993757;28;20211;-69
2023/07/24 10:43:44;;;;;;;7.38;5.95;;;;;;;;;;4983713;28;20206;-68
2023/07/24 10:46:10;;;;;;;8.07;5.72;;;;;;;;;;5001283;28;20180;-69
2023/07/24 10:48:36;;;;;;;7.40;5.40;;;;;;;;;;5007176;28;20278;-67
2023/07/24 10:51:08;;;;;;;10.60;6.05;;;;;;;;;;5003021;28;20198;-67
2023/07/24 10:53:36;;;;;;;8.68;6.15;;;;;;;;;;5004824;28;20187;-68
2023/07/24 10:56:01;;;;;;;8.32;6.07;;;;;;;;;;5005079;28;20222;-69
2023/07/24 10:58:27;;;;;;;8.43;5.78;;;;;;;;;;4993583;28;20195;-72
2023/07/24 11:00:53;;;;;;;9.65;6.13;;;;;;;;;;4990297;28;20556;-70
2023/07/24 11:03:19;;;;;;;6.40;5.80;;;;;;;;;;5005322;28;20260;-69
2023/07/24 11:05:46;;;;;;;7.30;5.90;;;;;;;;;;4992339;28;20830;-70
2023/07/24 11:08:14;;;;;;;6.22;5.20;;;;;;;;;;4999493;28;20210;-72
2023/07/24 11:10:52;;;;;;;7.70;5.20;;;;;;;;;;5001750;28;20187;-69
2023/07/24 11:13:19;;;;;;;7.65;6.03;;;;;;;;;;4993252;28;20195;-71
2023/07/24 11:15:45;;;;;;;11.32;6.28;;;;;;;;;;5006417;28;20222;-73
2023/07/24 11:18:11;;;;;;;7.63;6.18;;;;;;;;;;5006756;28;20218;-70
2023/07/24 11:20:50;;;;;;;10.65;7.03;;;;;;;;;;5007289;28;20297;-69
2023/07/24 11:23:16;;;;;;;9.23;6.93;;;;;;;;;;5007213;28;20297;-71
2023/07/24 11:25:42;;;;;;;11.35;6.65;;;;;;;;;;5002904;28;20241;-70
2023/07/24 11:28:10;;;;;;;7.35;6.55;;;;;;;;;;5012553;28;20238;-72
2023/07/24 11:30:36;;;;;;;9.00;6.78;;;;;;;;;;5011161;28;20205;-70
2023/07/24 11:33:05;;;;;;;8.45;7.32;;;;;;;;;;5010065;28;20293;-72
2023/07/24 11:35:30;;;;;;;10.25;6.80;;;;;;;;;;5000975;28;20230;-68
2023/07/24 11:37:56;;;;;;;8.02;6.68;;;;;;;;;;5008403;28;20195;-69
2023/07/24 11:40:30;;;;;;;9.88;7.93;;;;;;;;;;5002013;28;20599;-69
2023/07/24 11:42:55;;;;;;;11.30;8.65;;;;;;;;;;5014166;28;20582;-73
2023/07/24 11:45:20;;;;;;;9.93;8.80;;;;;;;;;;5011293;28;20207;-73
2023/07/24 11:47:48;;;;;;;12.18;8.57;;;;;;;;;;5010805;28;20261;-68
2023/07/24 11:50:14;;;;;;;10.82;8.23;;;;;;;;;;5006913;28;20187;-69
2023/07/24 11:52:45;;;;;;;10.25;8.18;;;;;;;;;;5013663;28;20662;-69
2023/07/24 11:55:12;;;;;;;8.38;7.50;;;;;;;;;;5010617;28;20230;-69
2023/07/24 11:57:38;;;;;;;10.30;8.75;;;;;;;;;;5012927;28;20198;-71
2023/07/24 12:00:05;;;;;;;12.25;8.77;;;;;;;;;;5009507;28;20672;-68
2023/07/24 12:02:33;;;;;;;9.32;8.27;;;;;;;;;;5005926;28;20203;-72
2023/07/24 12:05:10;;;;;;;9.59;8.59;;;;;;;;;;4983274;28;10001039;-70
2023/07/24 12:07:35;;;;;;;10.18;8.27;;;;;;;;;;5006614;28;20414;-68
2023/07/24 12:10:03;;;;;;;11.88;8.32;;;;;;;;;;5010095;28;20622;-73
2023/07/24 12:12:47;;;;;;;12.65;8.13;;;;;;;;;;4991458;28;20196;-73
2023/07/24 12:15:14;;;;;;;9.93;7.35;;;;;;;;;;5001166;28;20217;-71
2023/07/24 12:17:40;;;;;;;10.23;6.80;;;;;;;;;;5010278;28;20280;-69
2023/07/24 12:20:10;;;;;;;8.05;6.40;;;;;;;;;;4997575;28;20202;-69
2023/07/24 12:22:37;;;;;;;9.40;6.35;;;;;;;;;;5003812;28;20206;-73
2023/07/24 12:25:03;;;;;;;9.60;6.00;;;;;;;;;;5010239;28;20225;-68
2023/07/24 12:27:28;;;;;;;6.75;5.30;;;;;;;;;;5004713;28;20238;-68
2023/07/24 12:29:54;;;;;;;8.07;5.60;;;;;;;;;;5003356;28;20206;-68
2023/07/24 12:32:20;;;;;;;7.07;5.70;;;;;;;;;;5003168;28;20197;-68
2023/07/24 12:34:49;;;;;;;8.68;6.05;;;;;;;;;;5005257;28;20301;-68
2023/07/24 12:37:15;;;;;;;10.23;5.75;;;;;;;;;;5010520;28;20194;-72
2023/07/24 12:39:40;;;;;;;9.13;5.80;;;;;;;;;;5003539;28;20206;-68
2023/07/24 12:42:06;;;;;;;6.78;5.05;;;;;;;;;;4988608;28;20222;-68
2023/07/24 12:44:32;;;;;;;9.13;5.75;;;;;;;;;;5010722;28;20252;-68
2023/07/24 12:46:57;;;;;;;7.88;5.30;;;;;;;;;;5008260;28;20388;-68
2023/07/24 12:49:22;;;;;;;8.20;5.57;;;;;;;;;;5006283;28;20593;-69
2023/07/24 12:51:48;;;;;;;9.35;6.03;;;;;;;;;;5001662;28;20197;-68
2023/07/24 12:54:13;;;;;;;8.05;6.53;;;;;;;;;;5005934;28;20568;-69
2023/07/24 12:56:39;;;;;;;10.85;6.72;;;;;;;;;;5005080;28;20765;-69
2023/07/24 12:59:05;;;;;;;10.27;6.40;;;;;;;;;;5009244;28;20187;-69
2023/07/24 13:01:30;;;;;;;8.50;6.57;;;;;;;;;;5000041;28;20609;-68
2023/07/24 13:03:55;;;;;;;9.15;6.72;;;;;;;;;;4999844;28;20214;-68
2023/07/24 13:06:22;;;;;;;8.70;6.32;;;;;;;;;;5003970;28;20195;-68
2023/07/24 13:08:47;;;;;;;8.35;5.90;;;;;;;;;;5002753;28;20186;-68
2023/07/24 13:11:12;;;;;;;10.57;7.10;;;;;;;;;;4998390;28;20213;-68
2023/07/24 13:13:38;;;;;;;7.90;5.80;;;;;;;;;;4990937;28;20283;-68
2023/07/24 13:16:03;;;;;;;9.18;5.72;;;;;;;;;;5005281;28;20224;-68
2023/07/24 13:18:29;;;;;;;10.63;7.00;;;;;;;;;;5001046;28;20309;-70
2023/07/24 13:20:56;;;;;;;11.07;6.70;;;;;;;;;;5012168;28;20996;-68
2023/07/24 13:23:21;;;;;;;8.32;6.78;;;;;;;;;;5002628;28;20311;-69
2023/07/24 13:25:46;;;;;;;12.80;6.95;;;;;;;;;;5005596;28;20361;-68
2023/07/24 13:28:12;;;;;;;9.88;6.63;;;;;;;;;;5007707;28;20234;-70
2023/07/24 13:30:37;;;;;;;7.93;7.10;;;;;;;;;;5013991;28;20719;-68
2023/07/24 13:33:03;;;;;;;13.35;7.65;;;;;;;;;;5007692;28;20191;-68
2023/07/24 13:35:28;;;;;;;9.25;6.82;;;;;;;;;;5005290;28;20356;-68
2023/07/24 13:37:53;;;;;;;8.85;6.47;;;;;;;;;;5000981;28;20387;-72
2023/07/24 13:40:19;;;;;;;12.35;6.28;;;;;;;;;;4992365;28;20199;-69
2023/07/24 13:42:44;;;;;;;7.40;5.80;;;;;;;;;;5002333;28;20195;-68
2023/07/24 13:45:10;;;;;;;10.27;6.18;;;;;;;;;;4996859;28;20262;-69
2023/07/24 13:47:35;;;;;;;9.10;6.57;;;;;;;;;;4997789;28;20187;-67
2023/07/24 13:50:03;;;;;;;7.47;6.78;;;;;;;;;;5001533;28;20198;-69
2023/07/24 13:52:29;;;;;;;10.00;7.88;;;;;;;;;;5024214;28;20217;-69
2023/07/24 13:54:54;;;;;;;11.77;7.57;;;;;;;;;;4996861;28;20325;-71
2023/07/24 13:57:20;;;;;;;11.05;7.68;;;;;;;;;;5021350;28;20684;-68
2023/07/24 13:59:45;;;;;;;11.77;7.78;;;;;;;;;;5003581;28;20568;-70
2023/07/24 14:02:12;;;;;;;11.00;7.30;;;;;;;;;;5005607;28;20658;-72
2023/07/24 14:04:37;;;;;;;10.20;7.43;;;;;;;;;;5001497;28;20305;-68
2023/07/24 14:07:03;;;;;;;11.60;7.80;;;;;;;;;;5008113;28;20713;-68
2023/07/24 14:09:28;;;;;;;10.60;7.78;;;;;;;;;;4999101;28;20218;-68
2023/07/24 14:11:54;;;;;;;12.05;8.05;;;;;;;;;;5009572;28;20221;-68
2023/07/24 14:14:19;;;;;;;10.73;7.40;;;;;;;;;;4999448;28;20191;-68
2023/07/24 14:16:44;;;;;;;9.20;6.85;;;;;;;;;;5001405;28;20207;-69
2023/07/24 14:19:10;;;;;;;10.20;7.63;;;;;;;;;;5006265;28;20578;-67
2023/07/24 14:21:35;;;;;;;12.07;7.88;;;;;;;;;;5010187;28;20206;-68
2023/07/24 14:24:00;;;;;;;8.48;7.28;;;;;;;;;;5008324;28;20203;-68
2023/07/24 14:26:26;;;;;;;12.10;8.82;;;;;;;;;;5008206;28;20585;-68
2023/07/24 14:28:52;;;;;;;9.73;7.10;;;;;;;;;;5007340;28;20202;-68
2023/07/24 14:31:17;;;;;;;10.07;5.65;;;;;;;;;;5009035;28;20195;-68